Elkhead, Missouri
Current Conditions -  °F | °C
As of 7:15 PM on Wednesday 22 Oct 2014 (Local Time) from KFWB Reporting Station
Few Clouds Few Clouds  
Wind Chill: 59°   Ceiling: Unl
Heat Index: 59°   Visibility: 10mi
Dew Point: 48°   Wind: 6mph
Humidity: 67%   Direction: 100°E
Pressure: 30.18"   Gusts: NA
Location:  36.9498°N, 93.1251°W
Report Text: KFWB 230015Z AUTO 10005KT 10SM FEW032 15/09 A3018 RMK AO2
Loading
Personal Weather Stations






























Interactive Weather Map
Tropical Storm Tracking
New forecast layout! Learn more

10-Day Weather Forecast

Advertisements
Track Severe Weather on mobile